Time;durP1;ratioP1;P1;durP2;ratioP2;P2;SDS_P1;SDS_P2;PMS_P1;PMS_P2;Temp;Humidity;BMP_temperature;BMP_pressure;BME280_temperature;BME280_humidity;BME280_pressure;Samples;Min_cycle;Max_cycle;Signal;HPM_P1;HPM_P2
2022/08/29 00:00:19;;;;;;;14.93;10.32;;;17.10;99.90;;;;;;4899276;29;20032;-69
2022/08/29 00:02:53;;;;;;;12.25;10.13;;;17.10;99.90;;;;;;4899055;29;20025;-69
2022/08/29 00:05:24;;;;;;;15.68;11.73;;;17.10;99.90;;;;;;4899309;29;20194;-69
2022/08/29 00:07:51;;;;;;;13.57;10.88;;;17.10;99.90;;;;;;4899131;29;20027;-71
2022/08/29 00:10:20;;;;;;;19.88;12.23;;;17.20;99.90;;;;;;4899474;29;20024;-70
2022/08/29 00:12:47;;;;;;;15.82;11.63;;;17.30;99.90;;;;;;4899444;29;20129;-67
2022/08/29 00:15:15;;;;;;;21.05;14.88;;;17.40;99.90;;;;;;4898965;29;20020;-70
2022/08/29 00:17:43;;;;;;;21.13;13.65;;;17.40;99.90;;;;;;4899047;29;20027;-70
2022/08/29 00:20:14;;;;;;;18.13;15.98;;;17.40;99.90;;;;;;4898891;29;20031;-68
2022/08/29 00:22:41;;;;;;;17.90;13.40;;;17.50;99.90;;;;;;4899034;29;20028;-68
2022/08/29 00:25:10;;;;;;;18.58;13.63;;;17.50;99.90;;;;;;4898665;29;20111;-69
2022/08/29 00:27:37;;;;;;;22.70;14.00;;;17.50;99.90;;;;;;4898866;29;20020;-69
2022/08/29 00:30:07;;;;;;;15.48;12.10;;;17.50;99.90;;;;;;4899208;29;20039;-69
2022/08/29 00:32:35;;;;;;;21.67;14.48;;;17.50;99.90;;;;;;4898974;29;20047;-68
2022/08/29 00:35:12;;;;;;;22.15;12.63;;;17.50;99.90;;;;;;4899192;29;20094;-69
2022/08/29 00:37:40;;;;;;;13.73;11.52;;;17.60;99.90;;;;;;4899359;29;20104;-71
2022/08/29 00:40:12;;;;;;;20.10;15.35;;;17.70;99.90;;;;;;4898541;29;20032;-69
2022/08/29 00:42:40;;;;;;;12.25;7.80;;;17.70;99.90;;;;;;4898772;29;20052;-70
2022/08/29 00:45:09;;;;;;;15.05;7.80;;;17.80;99.90;;;;;;4898640;29;20040;-72
2022/08/29 00:47:41;;;;;;;9.52;6.97;;;17.80;99.90;;;;;;4898705;29;20016;-70
2022/08/29 00:50:23;;;;;;;10.25;6.25;;;17.90;99.90;;;;;;4898546;29;20056;-68
2022/08/29 00:52:51;;;;;;;9.38;5.88;;;17.90;99.90;;;;;;4898554;29;20032;-68
2022/08/29 00:55:21;;;;;;;8.68;5.10;;;18.00;99.90;;;;;;4897150;29;20032;-69
2022/08/29 00:57:54;;;;;;;6.95;5.05;;;18.10;99.90;;;;;;4897823;29;20058;-71
2022/08/29 01:00:20;;;;;;;;;;;18.10;99.90;;;;;;4898473;29;20028;-71
2022/08/29 01:02:49;;;;;;;7.22;4.70;;;18.30;99.90;;;;;;4897197;29;19911;-69
2022/08/29 01:05:18;;;;;;;5.45;3.72;;;18.40;99.90;;;;;;4898210;29;20048;-69
2022/08/29 01:07:47;;;;;;;7.43;3.58;;;18.50;99.90;;;;;;4898639;29;20021;-72
2022/08/29 01:12:14;;;;;;;11.20;3.58;;;18.60;99.90;;;;;;4898310;29;20689;-69
2022/08/29 01:13:04;;;;;;;7.63;3.95;;;18.80;99.90;;;;;;4898098;29;20040;-69
2022/08/29 01:15:33;;;;;;;5.85;3.55;;;19.00;99.90;;;;;;4898152;29;20056;-69
2022/08/29 01:18:02;;;;;;;9.57;3.03;;;19.00;99.90;;;;;;4898020;29;20029;-70
2022/08/29 01:20:43;;;;;;;6.65;2.92;;;19.20;99.90;;;;;;4898204;29;20107;-68
2022/08/29 01:23:13;;;;;;;9.38;3.45;;;19.30;99.90;;;;;;4897964;29;20109;-68
2022/08/29 01:25:46;;;;;;;6.65;2.40;;;19.50;99.90;;;;;;4898248;29;20108;-70
2022/08/29 01:28:27;;;;;;;7.85;2.40;;;19.60;99.90;;;;;;4898164;29;20020;-70
2022/08/29 01:31:09;;;;;;;6.38;1.70;;;19.80;99.90;;;;;;4898035;29;20375;-68
2022/08/29 01:33:48;;;;;;;3.95;1.80;;;20.00;99.90;;;;;;4897948;29;20076;-69
2022/08/29 01:36:25;;;;;;;4.80;1.52;;;20.10;99.90;;;;;;4897456;29;20505;-70
2022/08/29 01:38:53;;;;;;;3.78;1.50;;;20.10;99.90;;;;;;4897653;29;20359;-70
2022/08/29 01:41:21;;;;;;;4.25;1.85;;;20.30;99.90;;;;;;4897535;29;20088;-69
2022/08/29 01:43:51;;;;;;;10.65;1.70;;;20.30;99.90;;;;;;4896339;29;20306;-69
2022/08/29 01:46:24;;;;;;;4.80;1.60;;;20.30;99.90;;;;;;4896676;29;20367;-69
2022/08/29 01:48:51;;;;;;;4.55;1.33;;;20.40;99.90;;;;;;4896945;29;20029;-70
2022/08/29 01:51:19;;;;;;;4.78;1.45;;;20.40;99.90;;;;;;4897157;29;20027;-70
2022/08/29 01:53:46;;;;;;;3.65;1.35;;;20.60;99.90;;;;;;4897000;29;20059;-69
2022/08/29 01:56:18;;;;;;;4.43;1.27;;;20.60;99.90;;;;;;4897036;29;20021;-69
2022/08/29 01:58:47;;;;;;;6.55;1.60;;;20.50;99.70;;;;;;4897550;29;20057;-68
2022/08/29 02:01:19;;;;;;;4.55;2.08;;;20.40;99.90;;;;;;4897937;29;20107;-68
2022/08/29 02:03:47;;;;;;;5.30;1.33;;;20.20;99.90;;;;;;4897635;29;20032;-69
2022/08/29 02:06:14;;;;;;;4.53;0.90;;;20.20;99.90;;;;;;4897585;29;20025;-70
2022/08/29 02:08:43;;;;;;;2.83;1.23;;;20.20;99.90;;;;;;4897609;29;20036;-69
2022/08/29 02:11:12;;;;;;;6.43;1.77;;;20.10;99.90;;;;;;4897499;29;20554;-69
2022/08/29 02:13:44;;;;;;;4.13;1.25;;;20.00;99.90;;;;;;4897059;29;20498;-70
2022/08/29 02:16:12;;;;;;;4.40;1.38;;;19.90;99.90;;;;;;4897412;29;20408;-70
2022/08/29 02:18:43;;;;;;;5.75;1.10;;;19.80;99.90;;;;;;4897549;29;20067;-69
2022/08/29 02:21:13;;;;;;;1.95;1.23;;;19.70;99.90;;;;;;4897374;29;20028;-71
2022/08/29 02:23:40;;;;;;;5.32;1.48;;;19.60;99.90;;;;;;4897384;29;20109;-69
2022/08/29 02:26:08;;;;;;;4.05;1.08;;;19.50;99.90;;;;;;4897161;29;20028;-70
2022/08/29 02:28:36;;;;;;;8.45;1.45;;;19.60;99.90;;;;;;4897290;29;20028;-69
2022/08/29 02:31:05;;;;;;;5.75;1.10;;;19.60;99.90;;;;;;4897011;29;20030;-69
2022/08/29 02:33:32;;;;;;;9.35;1.42;;;19.60;99.90;;;;;;4896771;29;20055;-69
2022/08/29 02:35:59;;;;;;;6.85;1.88;;;19.60;99.90;;;;;;4896894;29;20554;-69
2022/08/29 02:38:27;;;;;;;9.13;1.70;;;19.50;99.90;;;;;;4896984;29;20363;-69
2022/08/29 02:40:56;;;;;;;6.05;0.88;;;19.50;99.90;;;;;;4896978;29;20025;-69
2022/08/29 02:43:25;;;;;;;6.38;1.38;;;19.70;99.90;;;;;;4895630;29;20432;-70
2022/08/29 02:45:53;;;;;;;4.93;1.30;;;19.70;99.90;;;;;;4896648;29;20081;-72
2022/08/29 02:48:20;;;;;;;6.28;1.33;;;19.80;99.90;;;;;;4895375;29;20474;-70
2022/08/29 02:50:52;;;;;;;4.80;1.17;;;19.80;99.90;;;;;;4896653;29;20033;-70
2022/08/29 02:53:23;;;;;;;4.50;1.08;;;19.70;99.90;;;;;;4896822;29;20025;-69
2022/08/29 02:55:53;;;;;;;5.38;1.02;;;19.60;99.90;;;;;;4896550;29;20784;-69
2022/08/29 02:58:22;;;;;;;10.90;5.40;;;19.70;99.90;;;;;;4896700;29;20501;-70
2022/08/29 03:00:50;;;;;;;5.43;1.42;;;19.80;99.90;;;;;;4900678;29;20025;-70
2022/08/29 03:03:18;;;;;;;7.78;1.10;;;19.70;99.90;;;;;;4899373;29;20040;-70
2022/08/29 03:05:46;;;;;;;3.38;0.82;;;19.80;99.90;;;;;;4900802;29;20016;-68
2022/08/29 03:08:14;;;;;;;6.93;1.15;;;19.70;99.90;;;;;;4900510;29;20020;-69
2022/08/29 03:10:42;;;;;;;3.97;1.10;;;19.70;99.90;;;;;;4900454;29;20021;-69
2022/08/29 03:13:10;;;;;;;6.80;1.50;;;19.70;99.90;;;;;;4900743;29;20040;-71
2022/08/29 03:15:38;;;;;;;11.77;1.60;;;19.80;99.90;;;;;;4900438;29;20123;-70
2022/08/29 03:18:06;;;;;;;6.03;1.20;;;19.80;99.90;;;;;;4900569;29;20080;-69
2022/08/29 03:20:36;;;;;;;8.60;1.90;;;19.70;99.90;;;;;;4900325;29;20035;-70
2022/08/29 03:23:04;;;;;;;7.57;1.90;;;19.70;99.90;;;;;;4900281;29;20466;-70
2022/08/29 03:25:32;;;;;;;8.07;1.23;;;19.70;99.90;;;;;;4899602;29;20025;-69
2022/08/29 03:27:59;;;;;;;4.97;1.08;;;19.70;99.90;;;;;;4899748;29;20524;-70
2022/08/29 03:30:28;;;;;;;3.15;0.70;;;19.60;99.90;;;;;;4898937;29;20039;-69
2022/08/29 03:32:56;;;;;;;6.32;1.00;;;19.70;99.90;;;;;;4899731;29;20031;-70
2022/08/29 03:35:23;;;;;;;8.13;1.30;;;19.70;99.90;;;;;;4899168;29;20035;-69
2022/08/29 03:37:53;;;;;;;7.18;1.35;;;19.70;99.90;;;;;;4899932;29;20430;-70
2022/08/29 03:40:21;;;;;;;7.40;1.02;;;19.70;99.90;;;;;;4899267;29;20028;-69
2022/08/29 03:42:49;;;;;;;11.73;1.20;;;19.80;99.90;;;;;;4899652;29;20029;-68
2022/08/29 03:45:18;;;;;;;5.10;2.00;;;19.70;99.90;;;;;;4899630;29;20136;-68
2022/08/29 03:47:45;;;;;;;4.60;0.95;;;19.70;99.90;;;;;;4900193;29;20021;-69
2022/08/29 03:50:15;;;;;;;4.88;1.13;;;19.50;99.90;;;;;;4899777;29;20057;-68
2022/08/29 03:52:43;;;;;;;5.65;1.13;;;19.50;99.90;;;;;;4899663;29;20758;-68
2022/08/29 03:55:11;;;;;;;10.27;1.83;;;19.60;99.90;;;;;;4899734;29;20025;-69
2022/08/29 03:57:39;;;;;;;6.13;1.60;;;19.60;99.90;;;;;;4898403;29;20091;-69
2022/08/29 04:00:11;;;;;;;13.23;1.98;;;19.50;99.90;;;;;;4899795;29;20047;-69
2022/08/29 04:02:39;;;;;;;6.20;2.20;;;19.50;99.90;;;;;;4899371;29;20512;-69
2022/08/29 04:05:07;;;;;;;4.68;0.75;;;19.50;99.90;;;;;;4899584;29;20115;-69
2022/08/29 04:07:44;;;;;;;8.25;1.50;;;19.50;99.90;;;;;;4899612;29;20452;-69
2022/08/29 04:10:16;;;;;;;7.93;0.93;;;19.40;99.90;;;;;;4899016;29;20037;-71
2022/08/29 04:12:43;;;;;;;4.90;1.23;;;19.40;99.90;;;;;;4899671;29;20025;-68
2022/08/29 04:15:12;;;;;;;5.30;1.13;;;19.30;99.90;;;;;;4899296;29;20033;-70
2022/08/29 04:17:40;;;;;;;7.28;1.52;;;19.30;99.90;;;;;;4899716;29;20025;-69
2022/08/29 04:20:09;;;;;;;9.40;1.30;;;19.30;99.90;;;;;;4899371;29;20024;-71
2022/08/29 04:22:37;;;;;;;5.72;1.10;;;19.30;99.90;;;;;;4899568;29;20025;-69
2022/08/29 04:25:12;;;;;;;6.82;1.88;;;19.40;99.90;;;;;;4899092;29;20056;-70
2022/08/29 04:27:40;;;;;;;7.35;1.50;;;19.40;99.90;;;;;;4899107;29;20025;-69
2022/08/29 04:30:15;;;;;;;9.63;2.28;;;19.40;99.90;;;;;;4898742;29;20382;-69
2022/08/29 04:32:43;;;;;;;9.48;1.33;;;19.40;99.90;;;;;;4899089;29;20037;-69
2022/08/29 04:35:12;;;;;;;6.85;0.88;;;19.40;99.90;;;;;;4899158;29;20398;-71
2022/08/29 04:37:41;;;;;;;5.95;1.52;;;19.30;99.90;;;;;;4899082;29;20116;-70
2022/08/29 04:40:12;;;;;;;5.55;1.17;;;19.40;99.90;;;;;;4899058;29;20104;-68
2022/08/29 04:42:40;;;;;;;10.07;1.92;;;19.40;99.90;;;;;;4898994;29;20060;-69
2022/08/29 04:45:13;;;;;;;10.43;1.55;;;19.50;99.90;;;;;;4898884;29;20029;-69
2022/08/29 04:47:42;;;;;;;7.93;2.25;;;19.50;99.90;;;;;;4899042;29;20475;-69
2022/08/29 04:50:12;;;;;;;9.68;1.27;;;19.50;99.90;;;;;;4898950;29;20021;-70
2022/08/29 04:52:41;;;;;;;7.22;1.33;;;19.40;99.90;;;;;;4898796;29;20100;-69
2022/08/29 04:55:10;;;;;;;7.28;2.40;;;19.40;99.90;;;;;;4898614;29;20497;-69
2022/08/29 04:57:38;;;;;;;5.88;1.50;;;19.20;99.90;;;;;;4898560;29;20033;-68
2022/08/29 05:00:11;;;;;;;7.47;1.13;;;19.20;99.90;;;;;;4898978;29;20111;-70
2022/08/29 05:02:40;;;;;;;12.52;1.85;;;19.10;99.90;;;;;;4898115;29;20032;-69
2022/08/29 05:05:13;;;;;;;11.00;1.85;;;19.10;99.90;;;;;;4898519;29;20052;-71
2022/08/29 05:07:41;;;;;;;9.35;1.17;;;19.00;99.90;;;;;;4898774;29;20032;-71
2022/08/29 05:10:16;;;;;;;10.73;2.50;;;18.90;99.90;;;;;;4898036;29;20028;-70
2022/08/29 05:12:44;;;;;;;5.53;1.30;;;18.90;99.90;;;;;;4897075;29;20029;-69
2022/08/29 05:15:12;;;;;;;5.35;1.30;;;18.80;99.90;;;;;;4898302;29;20112;-70
2022/08/29 05:17:40;;;;;;;11.57;1.60;;;18.80;99.90;;;;;;4898398;29;20027;-71
2022/08/29 05:20:08;;;;;;;4.72;2.03;;;18.80;99.90;;;;;;4897588;29;20092;-69
2022/08/29 05:22:37;;;;;;;8.93;1.55;;;18.70;99.90;;;;;;4896806;29;20394;-70
2022/08/29 05:25:05;;;;;;;7.13;1.60;;;18.80;99.90;;;;;;4896663;29;20446;-69
2022/08/29 05:27:32;;;;;;;10.25;1.75;;;18.70;99.90;;;;;;4897571;29;20039;-70
2022/08/29 05:30:00;;;;;;;6.18;2.45;;;18.70;99.90;;;;;;4898317;29;20035;-69
2022/08/29 05:32:27;;;;;;;9.13;1.80;;;18.70;99.90;;;;;;4897943;29;20080;-71
2022/08/29 05:34:55;;;;;;;5.63;1.42;;;18.70;99.90;;;;;;4898223;29;20029;-70
2022/08/29 05:37:22;;;;;;;13.18;1.70;;;18.60;99.90;;;;;;4898111;29;20071;-73
2022/08/29 05:39:50;;;;;;;9.07;1.60;;;18.60;99.90;;;;;;4898253;29;20165;-69
2022/08/29 05:42:21;;;;;;;12.60;1.98;;;18.50;99.90;;;;;;4897817;29;20051;-69
2022/08/29 05:44:48;;;;;;;12.02;2.72;;;18.50;99.90;;;;;;4898114;29;20035;-68
2022/08/29 05:47:18;;;;;;;9.60;2.03;;;18.40;99.90;;;;;;4897963;29;20021;-69
2022/08/29 05:49:47;;;;;;;12.57;1.90;;;18.40;99.90;;;;;;4894927;29;20028;-69
2022/08/29 05:52:17;;;;;;;14.85;2.15;;;18.40;99.90;;;;;;4896310;29;20466;-70
2022/08/29 05:54:45;;;;;;;11.60;1.70;;;18.30;99.90;;;;;;4895862;29;20039;-69
2022/08/29 05:57:15;;;;;;;7.38;2.05;;;18.30;99.90;;;;;;4897290;29;20385;-69
2022/08/29 05:59:50;;;;;;;6.75;1.50;;;18.30;99.90;;;;;;4897022;29;20079;-69
2022/08/29 06:02:18;;;;;;;9.75;1.55;;;18.30;99.90;;;;;;4897171;29;20028;-70
2022/08/29 06:04:46;;;;;;;6.78;1.60;;;18.20;99.90;;;;;;4897780;29;20504;-67
2022/08/29 06:07:14;;;;;;;12.35;2.63;;;18.10;99.90;;;;;;4897664;29;20068;-68
2022/08/29 06:09:42;;;;;;;7.45;2.03;;;18.00;99.90;;;;;;4896766;29;20032;-69
2022/08/29 06:12:12;;;;;;;12.85;1.95;;;17.90;99.90;;;;;;4897066;29;20028;-68
2022/08/29 06:14:40;;;;;;;16.45;2.40;;;17.90;99.90;;;;;;4897398;29;20028;-67
2022/08/29 06:17:09;;;;;;;9.93;2.00;;;17.80;99.90;;;;;;4897155;29;20021;-68
2022/08/29 06:19:38;;;;;;;15.90;2.25;;;17.70;99.90;;;;;;4897197;29;20076;-68
2022/08/29 06:22:07;;;;;;;12.52;2.35;;;17.70;99.90;;;;;;4897120;29;20084;-68
2022/08/29 06:24:38;;;;;;;10.43;2.00;;;17.60;99.90;;;;;;4911319;29;20135;-68
2022/08/29 06:27:06;;;;;;;13.38;2.38;;;17.60;99.90;;;;;;4897273;29;20021;-68
2022/08/29 06:29:33;;;;;;;12.25;2.53;;;17.60;99.90;;;;;;4896937;29;20044;-67
2022/08/29 06:32:01;;;;;;;16.58;2.85;;;17.50;99.90;;;;;;4896876;29;20371;-70
2022/08/29 06:34:29;;;;;;;12.35;2.63;;;17.60;99.90;;;;;;4896814;29;20111;-67
2022/08/29 06:36:58;;;;;;;10.70;3.05;;;17.50;99.90;;;;;;4895657;29;20032;-66
2022/08/29 06:39:25;;;;;;;15.05;2.50;;;17.50;99.90;;;;;;4896730;29;20382;-70
2022/08/29 06:41:53;;;;;;;15.70;2.58;;;17.50;99.90;;;;;;4896595;29;20028;-68
2022/08/29 06:44:20;;;;;;;12.02;2.47;;;17.50;99.90;;;;;;4896920;29;20138;-67
2022/08/29 06:46:49;;;;;;;11.82;2.97;;;17.40;99.90;;;;;;4896504;29;20367;-66
2022/08/29 06:49:18;;;;;;;12.95;3.45;;;17.40;99.90;;;;;;4896272;29;20024;-70
2022/08/29 06:51:51;;;;;;;11.80;2.50;;;17.40;99.90;;;;;;4894518;29;20025;-68
2022/08/29 06:54:21;;;;;;;12.55;2.95;;;17.40;99.90;;;;;;4895403;29;20026;-67
2022/08/29 06:56:50;;;;;;;10.93;2.72;;;17.30;99.90;;;;;;4896132;29;20036;-66
2022/08/29 06:59:18;;;;;;;17.15;4.20;;;17.40;99.90;;;;;;4891542;29;20075;-68
2022/08/29 07:01:46;;;;;;;13.85;2.15;;;17.30;99.90;;;;;;4881297;29;20060;-70
2022/08/29 07:04:14;;;;;;;13.00;2.33;;;17.30;99.90;;;;;;4895959;29;20032;-68
2022/08/29 07:06:42;;;;;;;16.85;3.33;;;17.30;99.90;;;;;;4896250;29;20017;-67
2022/08/29 07:09:10;;;;;;;18.55;3.38;;;17.30;99.90;;;;;;4896020;29;20048;-70
2022/08/29 07:11:40;;;;;;;12.45;2.72;;;17.20;99.90;;;;;;4896010;29;20040;-71
2022/08/29 07:14:08;;;;;;;16.13;2.90;;;17.30;99.90;;;;;;4896218;29;20103;-69
2022/08/29 07:16:37;;;;;;;13.80;2.70;;;17.20;99.90;;;;;;4896200;29;20025;-68
2022/08/29 07:19:07;;;;;;;14.02;3.75;;;17.20;99.90;;;;;;4896262;29;20035;-67
2022/08/29 07:21:35;;;;;;;13.07;2.70;;;17.10;99.90;;;;;;4896064;29;20037;-69
2022/08/29 07:24:02;;;;;;;17.15;3.17;;;17.10;99.90;;;;;;4895937;29;20045;-68
2022/08/29 07:26:37;;;;;;;14.82;3.63;;;17.10;99.90;;;;;;4895991;29;20025;-69
2022/08/29 07:29:09;;;;;;;16.88;3.70;;;17.10;99.90;;;;;;4895662;29;20020;-69
2022/08/29 07:31:38;;;;;;;15.48;3.35;;;17.10;99.90;;;;;;4896010;29;20373;-67
2022/08/29 07:34:05;;;;;;;16.30;3.60;;;17.00;99.90;;;;;;4895896;29;20434;-67
2022/08/29 07:36:34;;;;;;;12.32;3.42;;;17.00;99.90;;;;;;4895933;29;20039;-67
2022/08/29 07:39:04;;;;;;;14.23;4.00;;;17.00;99.90;;;;;;4895891;29;20107;-69
2022/08/29 07:41:31;;;;;;;21.33;3.30;;;17.00;99.90;;;;;;4895639;29;20261;-68
2022/08/29 07:43:58;;;;;;;16.98;3.13;;;16.90;99.90;;;;;;4896043;29;20738;-67
2022/08/29 07:46:26;;;;;;;15.32;2.85;;;17.00;99.90;;;;;;4899004;29;20036;-69
2022/08/29 07:48:53;;;;;;;17.17;3.67;;;16.90;99.90;;;;;;4898662;29;20884;-68
2022/08/29 07:51:22;;;;;;;17.30;2.92;;;16.90;99.90;;;;;;4897837;29;20021;-68
2022/08/29 07:53:51;;;;;;;10.70;2.95;;;16.90;99.90;;;;;;4898913;29;20028;-70
2022/08/29 07:56:22;;;;;;;15.68;4.55;;;16.90;99.90;;;;;;4898651;29;20020;-70
2022/08/29 07:58:53;;;;;;;15.27;3.20;;;16.90;99.90;;;;;;4912531;29;20056;-69
2022/08/29 08:01:21;;;;;;;16.30;3.87;;;16.90;99.90;;;;;;4897307;29;20020;-68
2022/08/29 08:03:50;;;;;;;22.52;3.38;;;16.90;99.90;;;;;;4898460;29;20303;-67
2022/08/29 08:06:20;;;;;;;18.58;3.47;;;16.90;99.90;;;;;;4899159;29;20103;-69
2022/08/29 08:08:48;;;;;;;22.92;3.00;;;16.90;99.90;;;;;;4897633;29;20033;-69
2022/08/29 08:11:16;;;;;;;22.65;3.90;;;16.90;99.90;;;;;;4896434;29;20056;-68
2022/08/29 08:13:44;;;;;;;23.52;4.53;;;16.90;99.90;;;;;;4892892;29;20032;-68
2022/08/29 08:16:14;;;;;;;21.08;3.40;;;16.90;99.90;;;;;;4897426;29;20025;-68
2022/08/29 08:18:43;;;;;;;18.15;3.65;;;16.90;99.90;;;;;;4898392;29;20481;-68
2022/08/29 08:21:11;;;;;;;22.83;5.00;;;16.90;99.90;;;;;;4898547;29;20033;-68
2022/08/29 08:23:40;;;;;;;19.08;4.95;;;16.90;99.90;;;;;;4897187;29;20060;-70
2022/08/29 08:26:08;;;;;;;19.65;5.00;;;16.90;99.90;;;;;;4897042;29;20475;-68
2022/08/29 08:28:36;;;;;;;18.50;3.72;;;16.90;99.90;;;;;;4896066;29;20036;-67
2022/08/29 08:31:06;;;;;;;20.05;4.47;;;16.80;99.90;;;;;;4895849;29;20043;-71
2022/08/29 08:33:37;;;;;;;17.30;4.25;;;16.70;99.90;;;;;;4893795;29;20060;-69
2022/08/29 08:36:28;;;;;;;13.95;3.65;;;16.80;99.90;;;;;;4894348;29;20027;-67
2022/08/29 08:38:57;;;;;;;21.10;4.22;;;16.70;99.90;;;;;;4896732;29;20115;-70
2022/08/29 08:41:30;;;;;;;17.45;4.25;;;16.70;99.90;;;;;;4895171;29;20569;-69
2022/08/29 08:44:05;;;;;;;13.48;4.40;;;16.70;99.90;;;;;;4898174;29;20108;-67
2022/08/29 08:46:42;;;;;;;22.33;4.35;;;16.60;99.90;;;;;;4897762;29;20029;-69
2022/08/29 08:49:22;;;;;;;17.42;5.13;;;16.70;99.90;;;;;;4898421;29;20096;-68
2022/08/29 08:52:01;;;;;;;21.92;3.97;;;16.70;99.90;;;;;;4898465;29;20032;-69
2022/08/29 08:54:35;;;;;;;16.92;3.63;;;16.60;99.90;;;;;;4895646;29;20077;-71
2022/08/29 08:57:13;;;;;;;18.88;4.20;;;16.60;99.90;;;;;;4896699;29;20020;-72
2022/08/29 08:59:42;;;;;;;12.40;3.78;;;16.60;99.90;;;;;;4896837;29;20055;-69
2022/08/29 09:02:36;;;;;;;13.38;3.65;;;16.60;99.90;;;;;;4896882;29;20033;-71
2022/08/29 09:05:33;;;;;;;17.83;4.10;;;16.60;99.90;;;;;;4897528;29;20480;-71
2022/08/29 09:08:17;;;;;;;17.88;4.70;;;16.60;99.90;;;;;;4897427;29;20029;-70
2022/08/29 09:11:10;;;;;;;16.23;4.30;;;16.60;99.90;;;;;;4889665;29;20028;-71
2022/08/29 09:14:19;;;;;;;12.63;4.70;;;16.50;99.90;;;;;;4896736;29;20040;-68
2022/08/29 09:16:52;;;;;;;16.60;4.07;;;16.50;99.90;;;;;;4911185;29;20040;-68
2022/08/29 09:19:19;;;;;;;16.35;4.40;;;16.60;99.90;;;;;;4897294;29;20126;-70
2022/08/29 09:21:54;;;;;;;12.30;3.08;;;16.50;99.90;;;;;;4896383;29;20028;-68
2022/08/29 09:24:48;;;;;;;15.95;3.83;;;16.50;99.90;;;;;;4895653;29;20040;-69
2022/08/29 09:27:21;;;;;;;20.52;4.70;;;16.50;99.90;;;;;;4895851;29;20055;-68
2022/08/29 09:29:54;;;;;;;14.77;4.25;;;16.50;99.90;;;;;;4896330;29;20037;-70
2022/08/29 09:32:21;;;;;;;8.70;3.30;;;16.50;99.90;;;;;;4896523;29;20099;-69
2022/08/29 09:34:49;;;;;;;14.98;3.50;;;16.50;99.90;;;;;;4896915;29;20035;-70
2022/08/29 09:37:24;;;;;;;18.73;4.75;;;16.60;99.90;;;;;;4891717;29;20486;-70
2022/08/29 09:40:02;;;;;;;12.75;4.85;;;16.60;99.90;;;;;;4891466;29;20035;-67
2022/08/29 09:42:34;;;;;;;11.90;3.60;;;16.60;99.90;;;;;;4896105;29;20072;-70
2022/08/29 09:45:15;;;;;;;14.97;5.17;;;16.60;99.90;;;;;;4897134;29;20435;-68
2022/08/29 09:47:42;;;;;;;11.27;3.78;;;16.60;99.90;;;;;;4896216;29;20267;-68
2022/08/29 09:50:25;;;;;;;15.10;3.45;;;16.50;99.90;;;;;;4895574;29;20032;-67
2022/08/29 09:52:51;;;;;;;;;;;16.60;99.90;;;;;;4897469;29;20024;-67
2022/08/29 09:55:21;;;;;;;12.65;3.80;;;16.50;99.90;;;;;;4896763;29;20002;-66
2022/08/29 09:58:03;;;;;;;12.52;3.63;;;16.50;99.90;;;;;;4895800;29;20490;-70
2022/08/29 10:01:04;;;;;;;13.13;3.65;;;16.40;99.90;;;;;;4896416;29;20121;-68
2022/08/29 10:03:38;;;;;;;12.70;3.58;;;16.50;99.90;;;;;;4893774;29;20506;-68
2022/08/29 10:06:23;;;;;;;15.70;4.15;;;16.50;99.90;;;;;;4896628;29;20029;-68
2022/08/29 10:09:16;;;;;;;8.13;3.92;;;16.50;99.90;;;;;;4895201;29;20032;-66
2022/08/29 10:11:52;;;;;;;16.55;4.50;;;16.50;99.90;;;;;;4895199;29;20723;-67
2022/08/29 10:14:19;;;;;;;9.40;3.30;;;16.50;99.90;;;;;;4893160;29;20033;-67
2022/08/29 10:18:19;;;;;;;9.07;4.28;;;16.50;99.90;;;;;;4895844;29;20031;-66
2022/08/29 10:19:48;;;;;;;13.98;4.63;;;16.40;99.90;;;;;;4893493;29;20039;-68
2022/08/29 10:22:28;;;;;;;11.88;4.78;;;16.50;99.90;;;;;;4892515;29;20040;-66
2022/08/29 10:24:58;;;;;;;10.48;3.60;;;16.50;99.90;;;;;;4893355;29;20083;-65
2022/08/29 10:27:54;;;;;;;10.00;4.32;;;16.50;99.90;;;;;;4895198;29;20056;-67
2022/08/29 10:30:25;;;;;;;15.13;4.57;;;16.50;99.90;;;;;;4894103;29;20397;-67
2022/08/29 10:33:19;;;;;;;9.13;4.15;;;16.50;99.90;;;;;;4893760;29;20055;-70
2022/08/29 10:36:11;;;;;;;16.88;5.07;;;16.50;99.90;;;;;;4896495;29;20025;-66
2022/08/29 10:39:13;;;;;;;11.23;5.00;;;16.50;99.90;;;;;;4895822;29;20141;-67
2022/08/29 10:41:46;;;;;;;11.18;5.75;;;16.50;99.90;;;;;;4895892;29;20028;-66
2022/08/29 10:44:28;;;;;;;13.20;6.72;;;16.50;99.90;;;;;;4895943;29;20486;-67
2022/08/29 10:47:05;;;;;;;13.07;5.60;;;16.40;99.90;;;;;;4895918;29;20052;-67
2022/08/29 10:49:48;;;;;;;15.15;6.43;;;16.50;99.90;;;;;;4895113;29;20041;-66
2022/08/29 10:52:42;;;;;;;12.70;6.72;;;16.50;99.90;;;;;;4895545;29;20138;-67
2022/08/29 10:55:35;;;;;;;11.63;5.93;;;16.40;99.90;;;;;;4896451;29;20029;-68
2022/08/29 10:58:16;;;;;;;16.80;7.20;;;16.40;99.90;;;;;;4896117;29;20380;-67
2022/08/29 11:01:06;;;;;;;11.15;5.78;;;16.50;99.90;;;;;;4895713;29;20064;-67
2022/08/29 11:03:42;;;;;;;11.10;6.03;;;16.50;99.90;;;;;;4895604;29;20070;-68
2022/08/29 11:06:26;;;;;;;11.82;6.47;;;16.50;99.90;;;;;;4895706;29;20032;-69
2022/08/29 11:09:09;;;;;;;10.20;6.45;;;16.40;99.90;;;;;;4896109;29;20025;-69
2022/08/29 11:11:39;;;;;;;14.27;6.05;;;16.50;99.90;;;;;;4895284;29;20025;-69
2022/08/29 11:14:17;;;;;;;13.75;6.45;;;16.50;99.90;;;;;;4915317;29;20028;-68
2022/08/29 11:16:51;;;;;;;10.82;6.80;;;16.50;99.90;;;;;;4915106;29;20024;-68
2022/08/29 11:19:50;;;;;;;13.27;6.63;;;16.50;99.90;;;;;;4901166;29;20025;-68
2022/08/29 11:22:41;;;;;;;12.38;6.85;;;16.40;99.90;;;;;;4898882;29;20043;-68
2022/08/29 11:25:15;;;;;;;9.95;5.85;;;16.50;99.90;;;;;;4899804;29;20097;-69
2022/08/29 11:28:08;;;;;;;11.05;5.88;;;16.40;99.90;;;;;;4899262;29;20025;-68
2022/08/29 11:31:11;;;;;;;13.95;6.13;;;16.40;99.90;;;;;;4899643;29;20028;-72
2022/08/29 11:33:54;;;;;;;10.70;5.78;;;16.40;99.90;;;;;;4899795;29;20025;-71
2022/08/29 11:36:39;;;;;;;9.27;5.57;;;16.40;99.90;;;;;;4899352;29;20032;-70
2022/08/29 11:39:33;;;;;;;13.52;6.18;;;16.40;99.90;;;;;;4898525;29;20028;-71
2022/08/29 11:42:06;;;;;;;9.38;6.28;;;16.40;99.90;;;;;;4897898;29;20033;-71
2022/08/29 11:44:39;;;;;;;10.07;5.72;;;16.40;99.90;;;;;;4898872;29;20046;-71
2022/08/29 11:47:37;;;;;;;9.65;6.80;;;16.40;99.90;;;;;;4899431;29;20029;-72
2022/08/29 11:50:22;;;;;;;9.70;5.55;;;16.30;99.90;;;;;;4898949;29;20052;-71
2022/08/29 11:53:09;;;;;;;11.43;5.72;;;16.30;99.90;;;;;;4898237;29;20040;-71
2022/08/29 11:55:44;;;;;;;11.65;6.32;;;16.30;99.90;;;;;;4899192;29;20043;-69
2022/08/29 11:58:14;;;;;;;11.05;6.28;;;16.20;99.90;;;;;;4899264;29;20505;-68
2022/08/29 12:00:46;;;;;;;9.90;5.30;;;16.20;99.90;;;;;;4899517;29;20024;-70
2022/08/29 12:03:35;;;;;;;11.23;5.82;;;16.20;99.90;;;;;;4899190;29;20111;-69
2022/08/29 12:06:31;;;;;;;11.07;5.25;;;16.20;99.90;;;;;;4894737;29;20041;-69
2022/08/29 12:09:13;;;;;;;8.57;4.40;;;16.20;99.90;;;;;;4893970;29;20073;-69
2022/08/29 12:11:59;;;;;;;10.15;5.03;;;16.20;99.90;;;;;;4880769;29;20024;-69
2022/08/29 12:14:38;;;;;;;9.20;4.55;;;16.10;99.90;;;;;;4880025;29;20399;-69
2022/08/29 12:17:16;;;;;;;10.13;6.25;;;16.00;99.90;;;;;;4879936;29;20504;-70
2022/08/29 12:19:56;;;;;;;10.15;5.97;;;16.10;99.90;;;;;;4890533;29;20033;-69
2022/08/29 12:22:44;;;;;;;8.00;4.72;;;16.10;99.90;;;;;;4899011;29;20052;-70
2022/08/29 12:25:27;;;;;;;7.30;4.50;;;16.00;99.90;;;;;;4897688;29;20033;-69
2022/08/29 12:28:31;;;;;;;8.20;4.35;;;16.10;99.90;;;;;;4899120;29;20029;-70
2022/08/29 12:31:00;;;;;;;8.50;4.65;;;16.00;99.90;;;;;;4898775;29;20021;-69
2022/08/29 12:33:39;;;;;;;10.57;4.22;;;16.00;99.90;;;;;;4898774;29;20048;-69
2022/08/29 12:36:37;;;;;;;10.50;6.22;;;16.00;99.90;;;;;;4898509;29;20103;-68
2022/08/29 12:39:14;;;;;;;9.25;4.70;;;16.00;99.90;;;;;;4898962;29;20419;-68
2022/08/29 12:42:02;;;;;;;9.02;4.50;;;16.00;99.90;;;;;;4898779;29;20466;-69
2022/08/29 12:44:36;;;;;;;8.52;4.60;;;15.90;99.90;;;;;;4898044;29;20545;-70
2022/08/29 12:47:28;;;;;;;5.78;4.68;;;15.90;99.90;;;;;;4898436;29;20116;-68
2022/08/29 12:49:59;;;;;;;6.35;4.25;;;15.90;99.90;;;;;;4897997;29;20537;-68
2022/08/29 12:52:33;;;;;;;8.18;3.97;;;15.90;99.90;;;;;;4897873;29;20051;-70
2022/08/29 12:55:22;;;;;;;8.25;4.05;;;15.90;99.90;;;;;;4912347;29;20041;-69
2022/08/29 12:57:50;;;;;;;8.38;4.53;;;16.00;99.90;;;;;;4912479;29;20024;-70
2022/08/29 13:00:26;;;;;;;7.47;3.42;;;16.00;99.90;;;;;;4912015;29;20044;-69
2022/08/29 13:03:02;;;;;;;9.30;5.28;;;16.00;99.90;;;;;;4898610;29;20020;-68
2022/08/29 13:05:31;;;;;;;6.75;3.35;;;16.00;99.90;;;;;;4897735;29;20064;-69
2022/08/29 13:08:07;;;;;;;7.13;3.50;;;15.90;99.90;;;;;;4897739;29;20037;-69
2022/08/29 13:10:37;;;;;;;6.82;3.40;;;16.00;99.90;;;;;;4897793;29;20028;-70